Time;durP1;ratioP1;P1;durP2;ratioP2;P2;SDS_P1;SDS_P2;PMS_P1;PMS_P2;Temp;Humidity;BMP_temperature;BMP_pressure;BME280_temperature;BME280_humidity;BME280_pressure;Samples;Min_cycle;Max_cycle;Signal;HPM_P1;HPM_P2
2023/03/20 00:00:21;;;;;;;10.85;6.80;;;9.00;99.90;;;;;;4940840;28;90907;-32
2023/03/20 00:02:46;;;;;;;8.85;6.43;;;9.00;99.90;;;;;;4928974;28;89256;-29
2023/03/20 00:05:17;;;;;;;10.00;5.80;;;8.90;99.90;;;;;;4940692;28;90257;-33
2023/03/20 00:07:44;;;;;;;10.32;6.25;;;8.90;99.90;;;;;;4928713;28;89443;-28
2023/03/20 00:10:10;;;;;;;11.35;7.25;;;8.90;99.90;;;;;;4941212;28;89513;-29
2023/03/20 00:12:36;;;;;;;12.75;7.60;;;8.90;99.90;;;;;;4941292;28;89443;-31
2023/03/20 00:15:05;;;;;;;15.45;8.07;;;8.90;99.90;;;;;;4940545;28;90422;-29
2023/03/20 00:17:31;;;;;;;9.25;6.05;;;8.90;99.90;;;;;;4940184;28;89695;-31
2023/03/20 00:19:57;;;;;;;7.20;5.78;;;8.90;99.90;;;;;;4923167;28;89185;-32
2023/03/20 00:22:22;;;;;;;10.15;7.72;;;8.90;99.90;;;;;;4940259;28;89848;-32
2023/03/20 00:24:48;;;;;;;12.30;8.18;;;8.90;99.90;;;;;;4940501;28;90501;-30
2023/03/20 00:27:16;;;;;;;9.77;7.78;;;8.90;99.90;;;;;;4940673;28;91203;-29
2023/03/20 00:29:42;;;;;;;10.52;7.88;;;8.80;99.90;;;;;;4939924;28;89041;-29
2023/03/20 00:32:12;;;;;;;10.43;7.35;;;8.80;99.90;;;;;;4940755;28;89187;-31
2023/03/20 00:34:38;;;;;;;11.73;8.15;;;8.70;99.90;;;;;;4940574;28;91396;-33
2023/03/20 00:37:04;;;;;;;15.35;9.68;;;8.70;99.90;;;;;;4940710;28;88276;-32
2023/03/20 00:39:30;;;;;;;18.98;9.25;;;8.70;99.90;;;;;;4940762;28;89484;-30
2023/03/20 00:42:07;;;;;;;12.27;8.88;;;8.70;99.90;;;;;;4940558;28;89702;-33
2023/03/20 00:44:47;;;;;;;15.63;9.85;;;8.70;99.90;;;;;;4940057;28;90721;-30
2023/03/20 00:47:22;;;;;;;16.25;9.80;;;8.70;99.90;;;;;;4940398;28;91468;-28
2023/03/20 00:49:49;;;;;;;13.07;9.02;;;8.70;99.90;;;;;;4927374;28;90562;-28
2023/03/20 00:52:17;;;;;;;17.13;10.00;;;8.70;99.90;;;;;;4939991;28;88907;-29
2023/03/20 00:54:43;;;;;;;16.30;10.30;;;8.70;99.90;;;;;;4939517;28;90302;-30
2023/03/20 00:57:16;;;;;;;16.48;10.35;;;8.70;99.90;;;;;;4939245;28;89292;-29
2023/03/20 00:59:50;;;;;;;17.67;10.85;;;8.70;99.90;;;;;;4939743;28;89073;-28
2023/03/20 01:02:16;;;;;;;18.75;10.38;;;8.70;99.90;;;;;;4939193;28;89421;-28
2023/03/20 01:04:42;;;;;;;20.35;13.00;;;8.70;99.90;;;;;;4939563;28;90891;-32
2023/03/20 01:07:13;;;;;;;19.33;10.93;;;8.60;99.90;;;;;;4938801;28;89901;-29
2023/03/20 01:09:38;;;;;;;20.92;12.20;;;8.70;99.90;;;;;;4940110;28;89395;-28
2023/03/20 01:12:06;;;;;;;20.23;10.98;;;8.60;99.90;;;;;;4938817;28;89057;-28
2023/03/20 01:14:32;;;;;;;17.23;10.57;;;8.70;99.90;;;;;;4938977;28;90027;-31
2023/03/20 01:16:58;;;;;;;15.65;8.88;;;8.60;99.90;;;;;;4939395;28;89628;-28
2023/03/20 01:19:24;;;;;;;18.60;10.52;;;8.60;99.90;;;;;;4939283;28;89642;-30
2023/03/20 01:21:50;;;;;;;14.50;9.65;;;8.60;99.90;;;;;;4939197;28;90402;-29
2023/03/20 01:24:15;;;;;;;18.52;8.25;;;8.60;99.90;;;;;;4939628;28;89785;-28
2023/03/20 01:26:43;;;;;;;12.48;8.48;;;8.50;99.90;;;;;;4939146;28;90050;-32
2023/03/20 01:29:21;;;;;;;14.52;8.48;;;8.60;99.90;;;;;;4938951;28;89418;-30
2023/03/20 01:31:47;;;;;;;14.13;6.33;;;8.50;99.90;;;;;;4939748;28;90198;-28
2023/03/20 01:34:15;;;;;;;13.15;7.90;;;8.50;99.90;;;;;;4939154;28;89840;-29
2023/03/20 01:36:46;;;;;;;11.33;7.37;;;8.40;99.90;;;;;;4938963;28;90374;-31
2023/03/20 01:39:11;;;;;;;12.00;7.72;;;8.40;99.90;;;;;;4939281;28;89854;-31
2023/03/20 01:41:38;;;;;;;11.05;7.65;;;8.40;99.90;;;;;;4939587;28;88184;-30
2023/03/20 01:44:21;;;;;;;15.77;7.38;;;8.50;99.90;;;;;;4938915;28;90522;-28
2023/03/20 01:46:48;;;;;;;11.98;7.20;;;8.40;99.90;;;;;;4928737;28;90299;-31
2023/03/20 01:49:20;;;;;;;20.80;7.00;;;8.50;99.90;;;;;;4939767;28;89214;-30
2023/03/20 01:51:50;;;;;;;14.90;9.05;;;8.40;99.90;;;;;;4939303;28;88020;-29
2023/03/20 01:54:24;;;;;;;16.23;7.90;;;8.40;99.90;;;;;;4939227;28;89057;-31
2023/03/20 01:56:58;;;;;;;10.90;6.35;;;8.40;99.90;;;;;;4938903;28;89171;-28
2023/03/20 01:59:40;;;;;;;17.52;8.70;;;8.30;99.90;;;;;;4939140;28;89509;-30
2023/03/20 02:02:08;;;;;;;14.98;7.00;;;8.30;99.90;;;;;;4938506;28;88683;-29
2023/03/20 02:04:38;;;;;;;13.13;7.35;;;8.30;99.90;;;;;;4938812;28;90052;-29
2023/03/20 02:07:06;;;;;;;13.30;6.32;;;8.30;99.90;;;;;;4938334;28;90203;-30
2023/03/20 02:09:31;;;;;;;9.63;6.28;;;8.30;99.90;;;;;;4939503;28;89940;-32
2023/03/20 02:11:59;;;;;;;9.32;6.20;;;8.30;99.90;;;;;;4938601;28;89505;-31
2023/03/20 02:14:25;;;;;;;11.07;7.20;;;8.30;99.90;;;;;;4920945;28;89684;-31
2023/03/20 02:16:51;;;;;;;11.27;6.50;;;8.30;99.90;;;;;;4938794;28;89787;-30
2023/03/20 02:19:36;;;;;;;9.10;5.97;;;8.30;99.90;;;;;;4921313;28;90195;-29
2023/03/20 02:22:50;;;;;;;14.68;7.55;;;8.20;99.90;;;;;;4938657;28;88735;-32
2023/03/20 02:25:44;;;;;;;11.30;5.68;;;8.20;99.90;;;;;;4939056;28;89960;-31
2023/03/20 02:28:27;;;;;;;9.70;6.05;;;8.20;99.90;;;;;;4938184;28;90601;-29
2023/03/20 02:31:01;;;;;;;7.60;5.13;;;8.20;99.90;;;;;;4938450;28;89368;-31
2023/03/20 02:33:57;;;;;;;11.27;5.72;;;8.20;99.90;;;;;;4939336;28;90486;-29
2023/03/20 02:36:47;;;;;;;14.07;7.55;;;8.20;99.90;;;;;;4938454;28;89950;-30
2023/03/20 02:39:41;;;;;;;6.93;5.15;;;8.20;99.90;;;;;;4938466;28;90309;-31
2023/03/20 02:42:30;;;;;;;10.52;5.90;;;8.20;99.90;;;;;;4940212;28;89168;-29
2023/03/20 02:45:20;;;;;;;11.15;6.47;;;8.20;99.90;;;;;;4942206;28;89014;-32
2023/03/20 02:48:20;;;;;;;12.75;7.55;;;8.20;99.90;;;;;;4941961;28;89632;-29
2023/03/20 02:51:31;;;;;;;13.90;7.85;;;8.20;99.90;;;;;;4941019;28;90707;-30
2023/03/20 02:54:34;;;;;;;18.17;7.68;;;8.20;99.90;;;;;;4941081;28;89702;-30
2023/03/20 02:57:35;;;;;;;13.13;6.75;;;8.10;99.90;;;;;;4941944;28;89949;-30
2023/03/20 03:00:09;;;;;;;7.78;6.15;;;8.10;99.90;;;;;;4919480;28;89930;-30
2023/03/20 03:03:10;;;;;;;13.85;8.82;;;8.10;99.90;;;;;;4941434;28;89590;-29
2023/03/20 03:05:58;;;;;;;11.90;8.30;;;8.10;99.90;;;;;;4941804;28;89108;-29
2023/03/20 03:08:30;;;;;;;13.93;7.00;;;8.10;99.90;;;;;;4943042;28;88988;-29
2023/03/20 03:11:06;;;;;;;18.55;10.20;;;8.10;99.90;;;;;;4929357;28;89639;-30
2023/03/20 03:13:36;;;;;;;21.35;10.48;;;8.10;99.90;;;;;;4940689;28;89313;-29
2023/03/20 03:16:13;;;;;;;11.48;8.82;;;8.10;99.90;;;;;;4941482;28;89189;-31
2023/03/20 03:18:41;;;;;;;15.80;9.45;;;8.10;99.90;;;;;;4941964;28;89076;-29
2023/03/20 03:21:09;;;;;;;15.23;9.50;;;8.10;99.90;;;;;;4923524;28;90398;-29
2023/03/20 03:23:43;;;;;;;12.18;8.10;;;8.10;99.90;;;;;;4940985;28;89797;-32
2023/03/20 03:26:17;;;;;;;16.52;10.32;;;8.00;99.90;;;;;;4941274;28;90612;-30
2023/03/20 03:28:47;;;;;;;14.45;8.18;;;8.00;99.90;;;;;;4940500;28;88024;-31
2023/03/20 03:31:16;;;;;;;16.83;11.40;;;8.00;99.90;;;;;;4941368;28;90777;-32
2023/03/20 03:33:44;;;;;;;;;;;8.00;99.90;;;;;;4940919;28;89411;-33
2023/03/20 03:36:12;;;;;;;14.60;7.72;;;8.00;99.90;;;;;;4942531;28;88349;-30
2023/03/20 03:38:44;;;;;;;12.38;9.32;;;8.00;99.90;;;;;;4942071;28;89420;-27
2023/03/20 03:41:36;;;;;;;21.27;10.20;;;8.00;99.90;;;;;;4941754;28;89921;-30
2023/03/20 03:44:11;;;;;;;17.52;11.10;;;8.00;99.90;;;;;;4940206;28;90076;-31
2023/03/20 03:46:49;;;;;;;22.10;11.93;;;8.00;99.90;;;;;;4928060;28;88184;-31
2023/03/20 03:49:21;;;;;;;11.27;8.95;;;8.00;99.90;;;;;;4939914;28;89601;-29
2023/03/20 03:51:52;;;;;;;15.55;9.85;;;8.00;99.90;;;;;;4940255;28;90295;-29
2023/03/20 03:54:24;;;;;;;15.82;10.38;;;8.10;99.90;;;;;;4940340;28;89842;-30
2023/03/20 03:56:50;;;;;;;18.92;12.55;;;8.00;99.90;;;;;;4939949;28;89632;-30
2023/03/20 03:59:36;;;;;;;13.63;10.15;;;8.00;99.90;;;;;;4939957;28;90138;-28
2023/03/20 04:02:07;;;;;;;18.40;11.45;;;8.00;99.90;;;;;;4940577;28;90513;-28
2023/03/20 04:04:34;;;;;;;20.58;11.18;;;8.00;99.90;;;;;;4940415;28;89833;-30
2023/03/20 04:07:00;;;;;;;22.05;13.73;;;8.00;99.90;;;;;;4940277;28;89436;-29
2023/03/20 04:09:26;;;;;;;19.30;11.05;;;8.00;99.90;;;;;;4940142;28;88769;-28
2023/03/20 04:11:52;;;;;;;17.55;11.05;;;8.00;99.90;;;;;;4940109;28;90898;-30
2023/03/20 04:14:18;;;;;;;12.68;8.43;;;8.00;99.90;;;;;;4939347;28;90585;-29
2023/03/20 04:16:44;;;;;;;22.38;11.52;;;8.00;99.90;;;;;;4939595;28;89506;-31
2023/03/20 04:19:10;;;;;;;15.32;9.75;;;8.10;99.90;;;;;;4940422;28;88406;-31
2023/03/20 04:21:36;;;;;;;17.48;9.73;;;8.10;99.90;;;;;;4939848;28;89631;-29
2023/03/20 04:24:02;;;;;;;15.10;9.32;;;8.00;99.90;;;;;;4940590;28;90340;-32
2023/03/20 04:26:28;;;;;;;16.48;9.07;;;8.00;99.90;;;;;;4940437;28;89607;-28
2023/03/20 04:28:53;;;;;;;17.88;9.45;;;8.00;99.90;;;;;;4940339;28;89379;-29
2023/03/20 04:31:19;;;;;;;12.20;8.00;;;8.00;99.90;;;;;;4940900;28;90861;-31
2023/03/20 04:33:46;;;;;;;12.40;7.70;;;8.00;99.90;;;;;;4939827;28;89892;-31
2023/03/20 04:36:12;;;;;;;13.48;9.00;;;8.00;99.90;;;;;;4940331;28;88522;-30
2023/03/20 04:38:37;;;;;;;14.25;9.15;;;8.00;99.90;;;;;;4939627;28;89131;-31
2023/03/20 04:41:04;;;;;;;10.88;7.40;;;8.00;99.90;;;;;;4939735;28;90315;-30
2023/03/20 04:43:29;;;;;;;17.33;8.88;;;8.00;99.90;;;;;;4940666;28;89348;-32
2023/03/20 04:45:55;;;;;;;12.20;8.55;;;8.00;99.90;;;;;;4939336;28;89936;-29
2023/03/20 04:48:21;;;;;;;10.40;6.55;;;7.90;99.90;;;;;;4940847;28;89835;-31
2023/03/20 04:50:47;;;;;;;9.02;7.40;;;8.00;99.90;;;;;;4940063;28;90283;-28
2023/03/20 04:53:16;;;;;;;10.45;7.15;;;7.90;99.90;;;;;;4939683;28;90343;-31
2023/03/20 04:55:44;;;;;;;15.82;8.00;;;7.90;99.90;;;;;;4939503;28;89911;-28
2023/03/20 04:58:11;;;;;;;11.32;6.97;;;7.90;99.90;;;;;;4940301;28;87772;-30
2023/03/20 05:00:36;;;;;;;10.52;7.70;;;7.90;99.90;;;;;;4940147;28;88638;-28
2023/03/20 05:03:02;;;;;;;14.25;8.30;;;7.90;99.90;;;;;;4939054;28;89678;-28
2023/03/20 05:05:28;;;;;;;12.07;5.88;;;7.90;99.90;;;;;;4939416;28;90841;-29
2023/03/20 05:07:54;;;;;;;16.70;8.07;;;7.90;99.90;;;;;;4940480;28;89747;-30
2023/03/20 05:10:20;;;;;;;9.20;6.25;;;7.90;99.90;;;;;;4939657;28;90062;-31
2023/03/20 05:12:46;;;;;;;16.73;7.78;;;7.90;99.90;;;;;;4940008;28;89492;-28
2023/03/20 05:15:12;;;;;;;13.48;8.02;;;7.90;99.90;;;;;;4939218;28;89625;-29
2023/03/20 05:17:38;;;;;;;13.13;8.02;;;7.90;99.90;;;;;;4940242;28;88401;-29
2023/03/20 05:20:04;;;;;;;7.07;5.90;;;7.90;99.90;;;;;;4939086;28;90261;-30
2023/03/20 05:22:30;;;;;;;12.75;8.27;;;7.90;99.90;;;;;;4939291;28;89969;-31
2023/03/20 05:24:56;;;;;;;10.15;7.40;;;7.90;99.90;;;;;;4939320;28;89642;-32
2023/03/20 05:27:21;;;;;;;11.60;8.55;;;7.90;99.90;;;;;;4939318;28;89798;-33
2023/03/20 05:29:47;;;;;;;16.25;7.70;;;7.80;99.90;;;;;;4939225;28;90386;-33
2023/03/20 05:32:12;;;;;;;14.05;7.72;;;7.80;99.90;;;;;;4939189;28;90310;-29
2023/03/20 05:34:38;;;;;;;15.50;8.65;;;7.80;99.90;;;;;;4938653;28;89931;-33
2023/03/20 05:37:04;;;;;;;15.00;8.38;;;7.80;99.90;;;;;;4939065;28;88690;-28
2023/03/20 05:39:29;;;;;;;11.70;7.88;;;7.80;99.90;;;;;;4938681;28;90520;-31
2023/03/20 05:41:55;;;;;;;12.57;8.20;;;7.80;99.90;;;;;;4939396;28;90083;-30
2023/03/20 05:44:20;;;;;;;12.15;8.00;;;7.80;99.90;;;;;;4938964;28;89301;-31
2023/03/20 05:46:46;;;;;;;12.10;8.55;;;7.80;99.90;;;;;;4921411;28;88300;-28
2023/03/20 05:49:12;;;;;;;16.15;10.65;;;7.80;99.90;;;;;;4938795;28;91620;-31
2023/03/20 05:51:37;;;;;;;14.82;9.68;;;7.80;99.90;;;;;;4938113;28;90829;-29
2023/03/20 05:54:04;;;;;;;11.10;8.63;;;7.80;99.90;;;;;;4939568;28;88983;-32
2023/03/20 05:56:30;;;;;;;10.38;8.02;;;7.80;99.90;;;;;;4939961;28;87544;-30
2023/03/20 05:58:56;;;;;;;14.57;9.90;;;7.80;99.90;;;;;;4938664;28;90227;-27
2023/03/20 06:01:21;;;;;;;17.15;9.60;;;7.80;99.90;;;;;;4939075;28;88866;-31
2023/03/20 06:03:47;;;;;;;12.30;9.00;;;7.80;99.90;;;;;;4938336;28;89560;-30
2023/03/20 06:06:14;;;;;;;20.38;10.25;;;7.80;99.90;;;;;;4939378;28;88561;-33
2023/03/20 06:08:40;;;;;;;15.65;10.50;;;7.80;99.90;;;;;;4938281;28;90424;-31
2023/03/20 06:11:06;;;;;;;12.65;9.23;;;7.80;99.90;;;;;;4938580;28;90207;-31
2023/03/20 06:13:31;;;;;;;16.00;9.88;;;7.80;99.90;;;;;;4938690;28;90044;-29
2023/03/20 06:15:57;;;;;;;15.05;9.38;;;7.80;99.90;;;;;;4939278;28;90627;-30
2023/03/20 06:18:23;;;;;;;16.70;10.43;;;7.80;99.90;;;;;;4942374;28;90489;-30
2023/03/20 06:20:56;;;;;;;21.63;9.68;;;7.80;99.90;;;;;;4940918;28;89851;-29
2023/03/20 06:23:22;;;;;;;14.63;10.30;;;7.80;99.90;;;;;;4941662;28;91248;-29
2023/03/20 06:25:48;;;;;;;18.60;10.05;;;7.80;99.90;;;;;;4941535;28;88943;-30
2023/03/20 06:28:14;;;;;;;17.40;11.13;;;7.80;99.90;;;;;;4942170;28;90680;-29
2023/03/20 06:30:39;;;;;;;17.33;10.68;;;7.80;99.90;;;;;;4942011;28;89627;-31
2023/03/20 06:33:06;;;;;;;14.27;11.00;;;7.90;99.90;;;;;;4941549;28;88883;-32
2023/03/20 06:35:32;;;;;;;20.85;11.23;;;7.80;99.90;;;;;;4941272;28;89079;-29
2023/03/20 06:37:58;;;;;;;13.40;10.25;;;7.90;99.90;;;;;;4941421;28;89602;-29
2023/03/20 06:40:26;;;;;;;12.30;9.38;;;7.90;99.90;;;;;;4940609;28;89716;-31
2023/03/20 06:42:52;;;;;;;14.27;10.03;;;7.90;99.90;;;;;;4942262;28;90485;-30
2023/03/20 06:45:18;;;;;;;12.30;8.55;;;8.00;99.90;;;;;;4940586;28;88964;-31
2023/03/20 06:47:45;;;;;;;18.08;11.57;;;8.00;99.90;;;;;;4941790;28;90556;-29
2023/03/20 06:50:12;;;;;;;14.60;11.10;;;8.00;99.90;;;;;;4941467;28;90189;-30
2023/03/20 06:52:38;;;;;;;17.50;9.40;;;8.00;99.90;;;;;;4940917;28;92516;-29
2023/03/20 06:55:05;;;;;;;12.68;8.65;;;8.10;99.90;;;;;;4931408;28;88825;-30
2023/03/20 06:57:31;;;;;;;13.90;9.07;;;8.10;99.90;;;;;;4942663;28;90313;-30
2023/03/20 06:59:56;;;;;;;133.70;33.10;;;8.10;99.90;;;;;;4940323;28;89772;-32
2023/03/20 07:02:23;;;;;;;13.57;8.63;;;8.10;99.90;;;;;;4941456;28;89519;-29
2023/03/20 07:04:48;;;;;;;12.77;9.32;;;8.20;99.90;;;;;;4941659;28;89630;-29
2023/03/20 07:07:14;;;;;;;11.38;8.30;;;8.20;99.90;;;;;;4941481;28;89761;-29
2023/03/20 07:09:40;;;;;;;11.30;7.97;;;8.20;99.90;;;;;;4941775;28;89785;-31
2023/03/20 07:12:12;;;;;;;12.50;8.98;;;8.20;99.90;;;;;;4941868;28;89563;-29
2023/03/20 07:14:38;;;;;;;13.15;7.82;;;8.30;99.90;;;;;;4938975;28;88747;-29
2023/03/20 07:17:03;;;;;;;12.32;8.32;;;8.30;99.90;;;;;;4939407;28;90312;-29
2023/03/20 07:19:30;;;;;;;20.02;9.35;;;8.30;99.90;;;;;;4939736;28;89740;-29
2023/03/20 07:22:02;;;;;;;16.55;8.90;;;8.30;99.90;;;;;;4939506;28;89603;-28
2023/03/20 07:24:27;;;;;;;12.20;7.82;;;8.30;99.90;;;;;;4940224;28;88311;-30
2023/03/20 07:26:53;;;;;;;14.93;7.95;;;8.30;99.90;;;;;;4938335;28;90497;-33
2023/03/20 07:29:19;;;;;;;16.98;9.45;;;8.30;99.90;;;;;;4938954;28;90889;-27
2023/03/20 07:31:45;;;;;;;14.10;7.55;;;8.30;99.90;;;;;;4939082;28;91735;-30
2023/03/20 07:34:11;;;;;;;13.25;9.60;;;8.30;99.90;;;;;;4940178;28;89004;-31
2023/03/20 07:36:37;;;;;;;16.10;8.23;;;8.30;99.90;;;;;;4939622;28;90119;-29
2023/03/20 07:39:03;;;;;;;14.75;9.07;;;8.30;99.90;;;;;;4938782;28;89748;-28
2023/03/20 07:41:29;;;;;;;12.85;8.52;;;8.40;99.90;;;;;;4939863;28;90498;-32
2023/03/20 07:43:55;;;;;;;19.25;7.88;;;8.40;99.90;;;;;;4939762;28;88352;-28
2023/03/20 07:46:21;;;;;;;11.43;6.75;;;8.40;99.90;;;;;;4939443;28;90423;-33
2023/03/20 07:48:46;;;;;;;26.33;8.48;;;8.40;99.90;;;;;;4938951;28;89957;-31
2023/03/20 07:51:12;;;;;;;13.88;7.45;;;8.50;99.90;;;;;;4938960;28;89647;-29
2023/03/20 07:53:37;;;;;;;15.80;9.25;;;8.50;99.90;;;;;;4938732;28;89561;-31
2023/03/20 07:56:03;;;;;;;11.35;7.78;;;8.60;99.90;;;;;;4938899;28;90705;-28
2023/03/20 07:58:29;;;;;;;16.23;9.30;;;8.60;99.90;;;;;;4938854;28;89734;-28
2023/03/20 08:00:57;;;;;;;16.08;8.98;;;8.60;99.90;;;;;;4940049;28;88417;-29
2023/03/20 08:03:23;;;;;;;12.68;7.97;;;8.70;99.90;;;;;;4938607;28;88016;-31
2023/03/20 08:05:48;;;;;;;11.80;8.30;;;8.70;99.90;;;;;;4938622;28;89832;-29
2023/03/20 08:08:14;;;;;;;12.93;8.02;;;8.70;99.90;;;;;;4939119;28;89977;-30
2023/03/20 08:10:40;;;;;;;14.13;8.90;;;8.70;99.90;;;;;;4938514;28;89606;-30
2023/03/20 08:13:06;;;;;;;14.80;9.65;;;8.80;99.90;;;;;;4939179;28;89661;-30
2023/03/20 08:15:31;;;;;;;19.17;8.63;;;8.80;99.90;;;;;;4938637;28;89812;-28
2023/03/20 08:17:57;;;;;;;12.93;8.43;;;8.80;99.90;;;;;;4937710;28;91024;-31
2023/03/20 08:20:23;;;;;;;14.05;9.45;;;8.90;99.90;;;;;;4937960;28;92156;-29
2023/03/20 08:22:49;;;;;;;16.52;8.40;;;8.90;99.90;;;;;;4938114;28;88981;-28
2023/03/20 08:25:15;;;;;;;17.45;10.13;;;8.80;99.90;;;;;;4939245;28;90126;-31
2023/03/20 08:27:41;;;;;;;16.20;9.38;;;8.90;99.90;;;;;;4937677;28;91876;-30
2023/03/20 08:30:08;;;;;;;16.90;9.75;;;8.90;99.90;;;;;;4938118;28;88943;-28
2023/03/20 08:32:34;;;;;;;17.08;8.75;;;9.00;99.90;;;;;;4938766;28;87758;-31
2023/03/20 08:35:00;;;;;;;14.07;10.02;;;9.00;99.90;;;;;;4938760;28;90228;-28
2023/03/20 08:37:26;;;;;;;17.20;8.20;;;9.00;99.90;;;;;;4937771;28;89772;-32
2023/03/20 08:39:52;;;;;;;16.77;9.93;;;9.00;99.90;;;;;;4937655;28;90783;-29
2023/03/20 08:42:17;;;;;;;11.57;9.50;;;9.10;99.90;;;;;;4938095;28;89746;-30
2023/03/20 08:44:43;;;;;;;12.52;8.23;;;9.20;99.90;;;;;;4938054;28;90729;-31
2023/03/20 08:47:10;;;;;;;13.85;9.82;;;9.20;99.90;;;;;;4938514;28;89602;-30
2023/03/20 08:49:36;;;;;;;13.55;8.82;;;9.30;99.90;;;;;;4937693;28;90162;-32
2023/03/20 08:52:03;;;;;;;13.80;9.85;;;9.40;99.90;;;;;;4938292;28;89551;-29
2023/03/20 08:54:28;;;;;;;16.08;9.80;;;9.40;99.90;;;;;;4937535;28;91208;-29
2023/03/20 08:56:54;;;;;;;12.23;9.02;;;9.50;99.90;;;;;;4938636;28;90069;-29
2023/03/20 08:59:20;;;;;;;14.15;9.60;;;9.50;99.90;;;;;;4938766;28;91067;-29
2023/03/20 09:01:46;;;;;;;10.63;9.00;;;9.50;99.90;;;;;;4937621;28;89649;-32
2023/03/20 09:04:14;;;;;;;15.50;10.88;;;9.70;99.90;;;;;;4938234;28;90231;-30
2023/03/20 09:06:40;;;;;;;14.82;9.93;;;9.90;99.90;;;;;;4936657;28;91923;-29
2023/03/20 09:09:06;;;;;;;12.35;9.68;;;10.00;99.90;;;;;;4937866;28;90931;-30
2023/03/20 09:11:33;;;;;;;16.02;10.32;;;10.00;99.90;;;;;;4938313;28;89494;-32
2023/03/20 09:13:59;;;;;;;12.77;9.57;;;10.00;99.90;;;;;;4936892;28;90291;-30
2023/03/20 09:16:25;;;;;;;12.90;9.27;;;10.00;99.90;;;;;;4937641;28;88449;-33
2023/03/20 09:18:51;;;;;;;15.63;9.25;;;10.00;99.90;;;;;;4937532;28;90145;-30
2023/03/20 09:21:16;;;;;;;13.88;10.43;;;10.00;99.90;;;;;;4937980;28;88256;-32
2023/03/20 09:23:42;;;;;;;13.25;9.65;;;9.90;99.90;;;;;;4937308;28;90739;-28
2023/03/20 09:26:08;;;;;;;11.43;9.57;;;9.90;99.90;;;;;;4937945;28;90775;-30
2023/03/20 09:28:33;;;;;;;10.63;9.07;;;9.90;99.90;;;;;;4937486;28;89795;-31
2023/03/20 09:31:00;;;;;;;541.08;125.63;;;10.00;99.90;;;;;;4937503;28;89762;-28
2023/03/20 09:33:26;;;;;;;17.33;10.05;;;10.10;99.90;;;;;;4935795;28;90238;-31
2023/03/20 09:35:51;;;;;;;13.77;10.20;;;10.10;99.90;;;;;;4937476;28;89790;-29
2023/03/20 09:38:17;;;;;;;22.15;11.15;;;10.20;99.90;;;;;;4936926;28;91384;-28
2023/03/20 09:40:53;;;;;;;14.43;9.82;;;10.40;99.90;;;;;;4936278;28;89776;-28
2023/03/20 09:43:31;;;;;;;10.82;9.43;;;10.70;99.90;;;;;;4937791;28;90360;-29
2023/03/20 09:46:35;;;;;;;19.90;9.05;;;10.80;99.90;;;;;;4936726;28;89790;-31
2023/03/20 09:49:25;;;;;;;18.33;11.35;;;10.80;99.90;;;;;;4916141;28;90142;-30
2023/03/20 09:51:58;;;;;;;12.70;10.38;;;11.20;99.90;;;;;;4933745;28;89011;-31
2023/03/20 09:54:35;;;;;;;13.63;10.25;;;11.20;99.90;;;;;;4937121;28;90073;-31
2023/03/20 09:57:01;;;;;;;17.80;11.43;;;11.30;99.90;;;;;;4928530;28;90690;-28
2023/03/20 09:59:31;;;;;;;10.85;8.68;;;11.40;99.90;;;;;;4935703;28;93129;-31
2023/03/20 10:02:05;;;;;;;21.80;10.45;;;11.60;99.90;;;;;;4936717;28;89150;-32
2023/03/20 10:04:32;;;;;;;13.45;10.38;;;11.70;99.90;;;;;;4936262;28;90840;-29
2023/03/20 10:06:57;;;;;;;12.77;10.80;;;11.70;99.90;;;;;;4935742;28;91106;-31
2023/03/20 10:09:26;;;;;;;12.73;9.15;;;11.70;99.90;;;;;;4936341;28;89383;-31
2023/03/20 10:12:27;;;;;;;13.73;8.43;;;11.70;99.90;;;;;;4937010;28;88635;-31
2023/03/20 10:15:17;;;;;;;15.05;9.80;;;11.80;99.90;;;;;;4933062;28;90119;-31
2023/03/20 10:17:49;;;;;;;102.05;25.30;;;11.60;99.90;;;;;;4934792;28;88843;-30
2023/03/20 10:20:34;;;;;;;20.80;10.38;;;11.40;99.90;;;;;;4936537;28;89653;-31
2023/03/20 10:23:26;;;;;;;26.00;12.88;;;11.40;99.90;;;;;;4928255;28;89074;-33
2023/03/20 10:26:04;;;;;;;10.38;9.18;;;11.50;99.90;;;;;;4898563;28;90446;-29
2023/03/20 10:28:44;;;;;;;13.23;9.05;;;11.50;99.90;;;;;;4937401;28;89705;-31
2023/03/20 10:31:19;;;;;;;40.85;16.05;;;11.60;99.90;;;;;;4937601;28;90046;-29
2023/03/20 10:34:02;;;;;;;14.65;8.73;;;11.60;99.90;;;;;;4924415;28;87551;-31
2023/03/20 10:36:47;;;;;;;18.33;10.48;;;11.70;99.90;;;;;;4937354;28;90154;-29
2023/03/20 10:39:53;;;;;;;11.63;8.00;;;11.90;99.90;;;;;;4935994;28;89739;-31
2023/03/20 10:42:29;;;;;;;19.70;9.50;;;12.20;99.90;;;;;;4928902;28;89501;-30
2023/03/20 10:45:03;;;;;;;13.07;7.95;;;12.20;99.90;;;;;;4936517;28;88764;-31
2023/03/20 10:47:33;;;;;;;12.45;8.88;;;11.90;99.90;;;;;;4936594;28;90559;-32
2023/03/20 10:50:05;;;;;;;16.40;7.68;;;11.90;99.90;;;;;;4936170;28;92319;-31
2023/03/20 10:52:36;;;;;;;12.60;9.50;;;11.70;99.90;;;;;;4936683;28;90003;-32
2023/03/20 10:55:10;;;;;;;26.70;9.05;;;11.70;99.90;;;;;;4936945;28;90289;-31
2023/03/20 10:57:46;;;;;;;14.77;9.65;;;11.70;99.90;;;;;;4936595;28;90119;-32
2023/03/20 11:00:22;;;;;;;14.05;10.60;;;11.50;99.90;;;;;;4936743;28;88862;-32
2023/03/20 11:02:47;;;;;;;11.30;9.60;;;11.40;99.90;;;;;;4924861;28;89705;-32
2023/03/20 11:05:24;;;;;;;14.05;8.82;;;11.20;99.90;;;;;;4939740;28;89086;-33
2023/03/20 11:08:05;;;;;;;15.82;11.35;;;11.10;99.90;;;;;;4940110;28;90489;-31
2023/03/20 11:10:33;;;;;;;17.30;11.13;;;11.00;99.90;;;;;;4938742;28;90506;-31
2023/03/20 11:13:15;;;;;;;19.00;9.77;;;10.90;99.90;;;;;;4938889;28;89607;-31
2023/03/20 11:15:41;;;;;;;18.92;11.45;;;10.80;99.90;;;;;;4938731;28;89040;-32
2023/03/20 11:18:14;;;;;;;13.80;10.68;;;10.80;99.90;;;;;;4939498;28;90497;-30
2023/03/20 11:20:50;;;;;;;20.48;10.48;;;10.70;99.90;;;;;;4936121;28;88835;-34
2023/03/20 11:23:22;;;;;;;16.42;10.10;;;10.50;99.90;;;;;;4938536;28;89777;-28
2023/03/20 11:26:06;;;;;;;13.68;9.52;;;10.60;99.90;;;;;;4938506;28;89229;-30
2023/03/20 11:28:40;;;;;;;11.07;8.60;;;10.60;99.90;;;;;;4939649;28;92277;-32
2023/03/20 11:31:12;;;;;;;10.20;9.15;;;10.60;99.90;;;;;;4939254;28;89119;-33
2023/03/20 11:33:42;;;;;;;15.43;10.35;;;10.50;99.90;;;;;;4939778;28;90948;-30
2023/03/20 11:36:20;;;;;;;11.63;10.40;;;10.50;99.90;;;;;;4939589;28;87878;-30
2023/03/20 11:38:48;;;;;;;15.20;10.55;;;10.40;99.90;;;;;;4937300;28;88904;-31
2023/03/20 11:41:21;;;;;;;12.68;10.80;;;10.40;99.90;;;;;;4935367;28;90994;-32
2023/03/20 11:43:47;;;;;;;16.50;11.68;;;10.50;99.90;;;;;;4938584;28;90514;-31
2023/03/20 11:46:13;;;;;;;15.82;9.90;;;10.50;99.90;;;;;;4937601;28;88281;-34
2023/03/20 11:48:41;;;;;;;14.32;9.85;;;10.30;99.90;;;;;;4939203;28;89708;-31
2023/03/20 11:51:09;;;;;;;14.13;7.85;;;10.40;99.90;;;;;;4938496;28;89667;-32
2023/03/20 11:53:42;;;;;;;21.10;9.77;;;10.40;99.90;;;;;;4973153;22;91772;-30
2023/03/20 11:56:11;;;;;;;14.27;8.73;;;10.50;99.90;;;;;;4939506;28;88567;-30
2023/03/20 11:58:56;;;;;;;13.02;9.50;;;10.50;99.90;;;;;;4939205;28;90275;-30
2023/03/20 12:01:23;;;;;;;12.27;9.23;;;10.30;99.90;;;;;;4938723;28;90956;-32
2023/03/20 12:03:54;;;;;;;9.60;8.40;;;10.40;99.90;;;;;;4938460;28;89788;-31
2023/03/20 12:06:37;;;;;;;9.45;8.45;;;10.30;99.90;;;;;;4938483;28;89463;-30
2023/03/20 12:09:11;;;;;;;13.10;8.18;;;10.30;99.90;;;;;;4938597;28;89864;-31
2023/03/20 12:11:40;;;;;;;9.18;7.18;;;10.50;99.90;;;;;;4938071;28;90000;-31
2023/03/20 12:14:26;;;;;;;14.68;8.48;;;10.30;99.90;;;;;;4938555;28;89118;-33
2023/03/20 12:17:01;;;;;;;10.80;5.63;;;10.10;99.90;;;;;;4938557;28;89235;-32
2023/03/20 12:19:30;;;;;;;8.85;7.25;;;10.20;99.90;;;;;;4938471;28;90232;-29
2023/03/20 12:22:14;;;;;;;10.85;7.43;;;10.10;99.90;;;;;;4938317;28;89259;-29
2023/03/20 12:24:53;;;;;;;7.75;6.95;;;10.20;99.90;;;;;;4938011;28;88932;-32
2023/03/20 12:27:31;;;;;;;11.05;6.90;;;10.20;99.90;;;;;;4927847;28;88468;-32
2023/03/20 12:30:03;;;;;;;12.73;7.82;;;10.20;99.90;;;;;;4937873;28;91129;-30
2023/03/20 12:32:40;;;;;;;13.88;10.48;;;10.30;99.90;;;;;;4939020;28;90664;-30
2023/03/20 12:35:09;;;;;;;11.25;8.30;;;10.00;99.90;;;;;;4937197;28;90565;-30
2023/03/20 12:37:34;;;;;;;;;;;10.20;99.90;;;;;;4941585;28;88890;-33
2023/03/20 12:40:03;;;;;;;13.60;8.45;;;10.30;99.90;;;;;;4939346;28;90350;-29
2023/03/20 12:42:55;;;;;;;;;;;10.10;99.90;;;;;;4939176;28;89403;-30
2023/03/20 12:45:24;;;;;;;12.23;8.48;;;10.10;99.90;;;;;;4929586;28;88538;-31
2023/03/20 12:48:18;;;;;;;9.68;8.85;;;10.00;99.90;;;;;;4939148;28;88636;-31
2023/03/20 12:51:02;;;;;;;9.40;7.72;;;10.10;99.90;;;;;;4937431;28;90649;-29
2023/03/20 12:53:51;;;;;;;15.02;8.43;;;10.00;99.90;;;;;;4938393;28;90096;-32
2023/03/20 12:56:47;;;;;;;10.60;8.45;;;10.10;99.90;;;;;;4923589;28;89643;-33
2023/03/20 12:59:24;;;;;;;7.15;6.13;;;10.00;99.90;;;;;;4932586;28;89418;-32
2023/03/20 13:02:19;;;;;;;8.17;6.20;;;10.00;99.90;;;;;;4937639;28;91334;-31